Tomiei Maru — JD3429 — position and weather

sailwx.info

Track history (hours):
 
Tides and Currents Weather Stations Pressure Air Temp Water Temp Dewpoint Dewpoint Depression Visibility Wind Speed Wind Dir Waves Ship Positions

Tomiei Maru

Last reported at 2017-Nov-12 23:23 UTC. Time now 2017-Nov-19 01:16 UTC.
Position N 34°38' E 135°28'.

Length 75 m; draft 4.3 m.

Type: Cargo ship. MMSI: 431004012.

Date/timePositionNaut miles runAvg speedWind from/ knotsBaromVisibWave heightAir tempDewpointWater temp
2017-Nov-12 23:23N 34°38' E 135°28'0 0.0
2017-Nov-12 22:59N 34°38' E 135°28'0 0.0
2017-Nov-12 22:29N 34°38' E 135°28'0 0.0
2017-Nov-12 21:59N 34°38' E 135°28'0 0.0
2017-Nov-12 20:29N 34°38' E 135°28'0 0.0
2017-Nov-12 19:47N 34°38' E 135°28'0 0.0
2017-Nov-12 19:30N 34°38' E 135°28'0 0.7
2017-Nov-12 19:00N 34°38' E 135°27'0 0.1
2017-Nov-12 18:11N 34°38' E 135°27'0 0.2
2017-Nov-12 17:58N 34°38' E 135°27'0 0.1
2017-Nov-12 17:30N 34°38' E 135°27'0 0.0
2017-Nov-12 16:58N 34°38' E 135°27'0 0.0
2017-Nov-12 16:29N 34°38' E 135°27'0 0.0
2017-Nov-12 16:00N 34°38' E 135°27'0 0.0
2017-Nov-12 15:30N 34°38' E 135°27'0 0.0
2017-Nov-12 15:00N 34°38' E 135°27'0 0.0
2017-Nov-12 14:27N 34°38' E 135°27'0 0.0
2017-Nov-12 14:00N 34°38' E 135°27'0 0.0
2017-Nov-12 12:12N 34°38' E 135°27'1 4.8
2017-Nov-12 12:00N 34°38' E 135°26'510.5
2017-Nov-12 11:30N 34°36' E 135°21'611.2
2017-Nov-12 11:00N 34°32' E 135°16'611.5
2017-Nov-12 10:30N 34°27' E 135°12'1411.3
2017-Nov-12 09:15N 34°15' E 135°03'312.1
2017-Nov-12 09:00N 34°12' E 135°03'  
2017-Nov-08 11:17N 34°07' E 135°03'312.2
2017-Nov-08 11:00N 34°10' E 135°03'1512.0
2017-Nov-08 09:44N 34°25' E 135°10'312.7
2017-Nov-08 09:29N 34°27' E 135°12'612.3
2017-Nov-08 08:59N 34°32' E 135°17'611.9
2017-Nov-08 08:30N 34°36' E 135°21'5 9.0
2017-Nov-08 07:58N 34°38' E 135°27'1 1.5
2017-Nov-08 07:30N 34°38' E 135°28'0 0.0
2017-Nov-08 06:53N 34°38' E 135°28'0 0.0
2017-Nov-08 06:29N 34°38' E 135°28'0 0.0
2017-Nov-08 05:59N 34°38' E 135°28'0 0.0
2017-Nov-08 05:29N 34°38' E 135°28'0 0.0
2017-Nov-08 04:59N 34°38' E 135°28'0 0.0
2017-Nov-08 03:35N 34°38' E 135°28'0 0.1
2017-Nov-08 03:29N 34°38' E 135°28'0 0.0
2017-Nov-08 02:59N 34°38' E 135°28'0 0.0
2017-Nov-08 02:29N 34°38' E 135°28'0 0.0
2017-Nov-08 01:59N 34°38' E 135°28'0 0.0
2017-Nov-08 01:29N 34°38' E 135°28'0 0.0
2017-Nov-08 00:59N 34°38' E 135°28'0 0.0
2017-Nov-08 00:23N 34°38' E 135°28'0 0.0
2017-Nov-07 23:59N 34°38' E 135°28'0 0.0
2017-Nov-07 23:29N 34°38' E 135°28'0 0.0
2017-Nov-07 22:59N 34°38' E 135°28'0 0.0
2017-Nov-07 22:29N 34°38' E 135°28'0 0.0
2017-Nov-07 21:41N 34°38' E 135°28'0 0.0
2017-Nov-07 21:29N 34°38' E 135°28'0 0.0
2017-Nov-07 20:59N 34°38' E 135°28'0 0.0
2017-Nov-07 20:29N 34°38' E 135°28'0 0.0
2017-Nov-07 19:35N 34°38' E 135°28'0 0.0
2017-Nov-07 19:05N 34°38' E 135°28'0 0.0
2017-Nov-07 18:59N 34°38' E 135°28'0 0.0
2017-Nov-07 18:29N 34°38' E 135°28'0 0.0
2017-Nov-07 17:59N 34°38' E 135°28'0 0.0
2017-Nov-07 17:29N 34°38' E 135°28'0 0.0
2017-Nov-07 16:59N 34°38' E 135°28'0 0.0
2017-Nov-07 16:29N 34°38' E 135°28'0 0.0
2017-Nov-07 15:59N 34°38' E 135°28'0 0.0
2017-Nov-07 15:23N 34°38' E 135°28'0 0.0
2017-Nov-07 14:59N 34°38' E 135°28'0 0.0
2017-Nov-07 14:23N 34°38' E 135°28'0 0.0
2017-Nov-07 11:59N 34°38' E 135°28'0 0.0
2017-Nov-07 09:47N 34°38' E 135°28'0 0.0
2017-Nov-07 07:28N 34°38' E 135°28'0 0.0
2017-Nov-07 01:28N 34°38' E 135°28'0 0.0
2017-Nov-07 00:57N 34°38' E 135°28'3 5.7
2017-Nov-07 00:30N 34°39' E 135°25'611.5
2017-Nov-07 00:01N 34°35' E 135°20'612.2
2017-Nov-06 23:30N 34°30' E 135°15'611.9
2017-Nov-06 23:00N 34°26' E 135°10'812.5
2017-Nov-06 22:19N 34°19' E 135°04'413.5
2017-Nov-06 22:00N 34°15' E 135°03'612.4
2017-Nov-06 21:30N 34°09' E 135°02'  
2017-Nov-04 10:07N 34°51' E 139°13'1412.5
2017-Nov-04 09:01N 34°60' E 139°26'212.8
2017-Nov-04 08:52N 35°01' E 139°28'512.9
2017-Nov-04 08:30N 35°03' E 139°33'713.3
2017-Nov-04 08:00N 35°07' E 139°40'612.8
2017-Nov-04 07:30N 35°11' E 139°45'611.9
2017-Nov-04 07:00N 35°17' E 139°45'612.6
2017-Nov-04 06:30N 35°23' E 139°42'612.4
2017-Nov-04 06:01N 35°28' E 139°48'712.9
2017-Nov-04 05:29N 35°31' E 139°55'2 0.1
2017-Nov-03 04:40N 35°30' E 139°53'212.8
2017-Nov-03 04:30N 35°29' E 139°51'612.3
2017-Nov-03 04:00N 35°27' E 139°44'5 9.0
2017-Nov-03 03:30N 35°29' E 139°39'0 0.1
2017-Nov-03 03:01N 35°29' E 139°39'0 0.0
2017-Nov-03 02:30N 35°29' E 139°39'0 0.1
2017-Nov-03 02:00N 35°29' E 139°39'0 0.0
2017-Nov-03 01:30N 35°29' E 139°39'0 0.0
2017-Nov-03 01:00N 35°29' E 139°39'1 1.3
2017-Nov-03 00:30N 35°28' E 139°40'2 4.2
2017-Nov-02 23:58N 35°27' E 139°42'0 0.1
2017-Nov-02 23:28N 35°27' E 139°42'  
Track history (hours):
 
Tides and Currents Weather Stations Pressure Air Temp Water Temp Dewpoint Dewpoint Depression Visibility Wind Speed Wind Dir Waves Ship Positions

Tomiei Maru

Last reported at 2017-Nov-12 23:23 UTC. Time now 2017-Nov-19 01:16 UTC.
Position N 34°38' E 135°28'.

Length 75 m; draft 4.3 m.

Type: Cargo ship. MMSI: 431004012.

Date/timePositionNaut miles runAvg speedWind from/ knotsBaromVisibWave heightAir tempDewpointWater temp
2017-Nov-12 23:23N 34°38' E 135°28'0 0.0
2017-Nov-12 22:59N 34°38' E 135°28'0 0.0
2017-Nov-12 22:29N 34°38' E 135°28'0 0.0
2017-Nov-12 21:59N 34°38' E 135°28'0 0.0
2017-Nov-12 20:29N 34°38' E 135°28'0 0.0
2017-Nov-12 19:47N 34°38' E 135°28'0 0.0
2017-Nov-12 19:30N 34°38' E 135°28'0 0.7
2017-Nov-12 19:00N 34°38' E 135°27'0 0.1
2017-Nov-12 18:11N 34°38' E 135°27'0 0.2
2017-Nov-12 17:58N 34°38' E 135°27'0 0.1
2017-Nov-12 17:30N 34°38' E 135°27'0 0.0
2017-Nov-12 16:58N 34°38' E 135°27'0 0.0
2017-Nov-12 16:29N 34°38' E 135°27'0 0.0
2017-Nov-12 16:00N 34°38' E 135°27'0 0.0
2017-Nov-12 15:30N 34°38' E 135°27'0 0.0
2017-Nov-12 15:00N 34°38' E 135°27'0 0.0
2017-Nov-12 14:27N 34°38' E 135°27'0 0.0
2017-Nov-12 14:00N 34°38' E 135°27'0 0.0
2017-Nov-12 12:12N 34°38' E 135°27'1 4.8
2017-Nov-12 12:00N 34°38' E 135°26'510.5
2017-Nov-12 11:30N 34°36' E 135°21'611.2
2017-Nov-12 11:00N 34°32' E 135°16'611.5
2017-Nov-12 10:30N 34°27' E 135°12'1411.3
2017-Nov-12 09:15N 34°15' E 135°03'312.1
2017-Nov-12 09:00N 34°12' E 135°03'  
2017-Nov-08 11:17N 34°07' E 135°03'312.2
2017-Nov-08 11:00N 34°10' E 135°03'1512.0
2017-Nov-08 09:44N 34°25' E 135°10'312.7
2017-Nov-08 09:29N 34°27' E 135°12'612.3
2017-Nov-08 08:59N 34°32' E 135°17'611.9
2017-Nov-08 08:30N 34°36' E 135°21'5 9.0
2017-Nov-08 07:58N 34°38' E 135°27'1 1.5
2017-Nov-08 07:30N 34°38' E 135°28'0 0.0
2017-Nov-08 06:53N 34°38' E 135°28'0 0.0
2017-Nov-08 06:29N 34°38' E 135°28'0 0.0
2017-Nov-08 05:59N 34°38' E 135°28'0 0.0
2017-Nov-08 05:29N 34°38' E 135°28'0 0.0
2017-Nov-08 04:59N 34°38' E 135°28'0 0.0
2017-Nov-08 03:35N 34°38' E 135°28'0 0.1
2017-Nov-08 03:29N 34°38' E 135°28'0 0.0
2017-Nov-08 02:59N 34°38' E 135°28'0 0.0
2017-Nov-08 02:29N 34°38' E 135°28'0 0.0
2017-Nov-08 01:59N 34°38' E 135°28'0 0.0
2017-Nov-08 01:29N 34°38' E 135°28'0 0.0
2017-Nov-08 00:59N 34°38' E 135°28'0 0.0
2017-Nov-08 00:23N 34°38' E 135°28'0 0.0
2017-Nov-07 23:59N 34°38' E 135°28'0 0.0
2017-Nov-07 23:29N 34°38' E 135°28'0 0.0
2017-Nov-07 22:59N 34°38' E 135°28'0 0.0
2017-Nov-07 22:29N 34°38' E 135°28'0 0.0
2017-Nov-07 21:41N 34°38' E 135°28'0 0.0
2017-Nov-07 21:29N 34°38' E 135°28'0 0.0
2017-Nov-07 20:59N 34°38' E 135°28'0 0.0
2017-Nov-07 20:29N 34°38' E 135°28'0 0.0
2017-Nov-07 19:35N 34°38' E 135°28'0 0.0
2017-Nov-07 19:05N 34°38' E 135°28'0 0.0
2017-Nov-07 18:59N 34°38' E 135°28'0 0.0
2017-Nov-07 18:29N 34°38' E 135°28'0 0.0
2017-Nov-07 17:59N 34°38' E 135°28'0 0.0
2017-Nov-07 17:29N 34°38' E 135°28'0 0.0
2017-Nov-07 16:59N 34°38' E 135°28'0 0.0
2017-Nov-07 16:29N 34°38' E 135°28'0 0.0
2017-Nov-07 15:59N 34°38' E 135°28'0 0.0
2017-Nov-07 15:23N 34°38' E 135°28'0 0.0
2017-Nov-07 14:59N 34°38' E 135°28'0 0.0
2017-Nov-07 14:23N 34°38' E 135°28'0 0.0
2017-Nov-07 11:59N 34°38' E 135°28'0 0.0
2017-Nov-07 09:47N 34°38' E 135°28'0 0.0
2017-Nov-07 07:28N 34°38' E 135°28'0 0.0
2017-Nov-07 01:28N 34°38' E 135°28'0 0.0
2017-Nov-07 00:57N 34°38' E 135°28'3 5.7
2017-Nov-07 00:30N 34°39' E 135°25'611.5
2017-Nov-07 00:01N 34°35' E 135°20'612.2
2017-Nov-06 23:30N 34°30' E 135°15'611.9
2017-Nov-06 23:00N 34°26' E 135°10'812.5
2017-Nov-06 22:19N 34°19' E 135°04'413.5
2017-Nov-06 22:00N 34°15' E 135°03'612.4
2017-Nov-06 21:30N 34°09' E 135°02'  
2017-Nov-04 10:07N 34°51' E 139°13'1412.5
2017-Nov-04 09:01N 34°60' E 139°26'212.8
2017-Nov-04 08:52N 35°01' E 139°28'512.9
2017-Nov-04 08:30N 35°03' E 139°33'713.3
2017-Nov-04 08:00N 35°07' E 139°40'612.8
2017-Nov-04 07:30N 35°11' E 139°45'611.9
2017-Nov-04 07:00N 35°17' E 139°45'612.6
2017-Nov-04 06:30N 35°23' E 139°42'612.4
2017-Nov-04 06:01N 35°28' E 139°48'712.9
2017-Nov-04 05:29N 35°31' E 139°55'2 0.1
2017-Nov-03 04:40N 35°30' E 139°53'212.8
2017-Nov-03 04:30N 35°29' E 139°51'612.3
2017-Nov-03 04:00N 35°27' E 139°44'5 9.0
2017-Nov-03 03:30N 35°29' E 139°39'0 0.1
2017-Nov-03 03:01N 35°29' E 139°39'0 0.0
2017-Nov-03 02:30N 35°29' E 139°39'0 0.1
2017-Nov-03 02:00N 35°29' E 139°39'0 0.0
2017-Nov-03 01:30N 35°29' E 139°39'0 0.0
2017-Nov-03 01:00N 35°29' E 139°39'1 1.3
2017-Nov-03 00:30N 35°28' E 139°40'2 4.2
2017-Nov-02 23:58N 35°27' E 139°42'0 0.1
2017-Nov-02 23:28N 35°27' E 139°42'  

Dump ship's entire track history